Time;durP1;ratioP1;P1;durP2;ratioP2;P2;SDS_P1;SDS_P2;PMS_P1;PMS_P2;Temp;Humidity;BMP_temperature;BMP_pressure;BME280_temperature;BME280_humidity;BME280_pressure;Samples;Min_cycle;Max_cycle;Signal;HPM_P1;HPM_P2
2022/07/17 00:00:14;;;;;;;9.98;5.55;;;14.00;99.90;;;;;;5054215;28;20124;-70
2022/07/17 00:02:40;;;;;;;12.95;6.25;;;14.00;99.90;;;;;;5055476;28;20087;-70
2022/07/17 00:05:06;;;;;;;12.25;6.25;;;13.90;99.90;;;;;;5053866;28;20049;-70
2022/07/17 00:07:32;;;;;;;11.85;7.10;;;13.80;99.90;;;;;;5054057;28;20041;-70
2022/07/17 00:09:57;;;;;;;9.68;6.05;;;14.00;99.90;;;;;;5037339;28;20087;-70
2022/07/17 00:12:23;;;;;;;9.43;5.25;;;;;;;;;;5054016;28;20037;-70
2022/07/17 00:14:49;;;;;;;8.88;4.85;;;13.80;99.90;;;;;;5054816;28;20044;-70
2022/07/17 00:17:15;;;;;;;9.25;4.07;;;13.70;99.90;;;;;;5037285;28;20507;-70
2022/07/17 00:19:41;;;;;;;7.28;4.20;;;;;;;;;;5053816;28;20135;-70
2022/07/17 00:22:07;;;;;;;6.38;4.07;;;13.70;99.90;;;;;;5055203;28;20048;-69
2022/07/17 00:24:33;;;;;;;7.95;3.70;;;;;;;;;;5054744;28;20040;-70
2022/07/17 00:26:58;;;;;;;6.35;3.70;;;13.60;99.90;;;;;;5037258;28;20612;-70
2022/07/17 00:29:24;;;;;;;8.48;3.08;;;;;;;;;;5053767;28;20108;-70
2022/07/17 00:31:50;;;;;;;8.68;3.35;;;13.60;99.90;;;;;;5053652;28;20467;-70
2022/07/17 00:34:15;;;;;;;7.20;3.40;;;13.60;99.90;;;;;;5053185;28;20041;-70
2022/07/17 00:36:41;;;;;;;6.43;3.22;;;13.60;99.90;;;;;;5053557;28;20044;-70
2022/07/17 00:39:07;;;;;;;5.88;3.03;;;13.60;99.90;;;;;;5053560;28;20120;-70
2022/07/17 00:41:32;;;;;;;6.70;3.05;;;13.30;99.90;;;;;;5054807;28;20413;-70
2022/07/17 00:44:09;;;;;;;4.53;2.97;;;13.30;99.90;;;;;;5054231;28;20036;-70
2022/07/17 00:46:35;;;;;;;4.70;3.15;;;13.50;99.90;;;;;;5053742;28;20402;-70
2022/07/17 00:49:02;;;;;;;4.53;3.05;;;13.40;99.90;;;;;;5053317;28;20119;-70
2022/07/17 00:51:28;;;;;;;7.75;2.97;;;13.30;99.90;;;;;;5054713;28;20123;-70
2022/07/17 00:53:55;;;;;;;4.30;2.80;;;13.40;99.90;;;;;;5053153;28;20068;-69
2022/07/17 00:56:22;;;;;;;5.55;3.00;;;13.30;99.90;;;;;;5036573;28;20037;-69
2022/07/17 00:58:50;;;;;;;9.13;3.47;;;13.10;99.90;;;;;;5053327;28;20090;-70
2022/07/17 01:01:16;;;;;;;5.28;2.88;;;;;;;;;;5054626;28;20041;-70
2022/07/17 01:03:42;;;;;;;5.93;2.85;;;13.20;99.90;;;;;;5054137;28;20119;-70
2022/07/17 01:06:07;;;;;;;6.18;2.67;;;13.10;99.90;;;;;;5052106;28;20121;-68
2022/07/17 01:08:34;;;;;;;5.53;2.75;;;13.20;99.90;;;;;;5036368;28;20037;-70
2022/07/17 01:10:59;;;;;;;5.47;2.78;;;13.10;99.90;;;;;;5052840;28;20395;-70
2022/07/17 01:13:26;;;;;;;5.30;2.35;;;13.10;99.90;;;;;;5053091;28;20079;-70
2022/07/17 01:15:52;;;;;;;5.38;2.50;;;13.10;99.90;;;;;;5053896;28;20039;-70
2022/07/17 01:18:18;;;;;;;5.25;2.50;;;13.10;99.90;;;;;;5052986;28;20037;-70
2022/07/17 01:20:46;;;;;;;4.20;2.80;;;13.10;99.90;;;;;;5052767;28;20559;-70
2022/07/17 01:23:12;;;;;;;6.00;2.65;;;13.10;99.90;;;;;;5052586;28;20037;-70
2022/07/17 01:25:38;;;;;;;7.63;3.90;;;13.00;99.90;;;;;;5053500;28;20491;-69
2022/07/17 01:28:04;;;;;;;4.93;3.13;;;12.90;99.90;;;;;;5052877;28;20086;-70
2022/07/17 01:30:31;;;;;;;6.28;3.20;;;12.90;99.90;;;;;;5053925;28;20072;-68
2022/07/17 01:32:56;;;;;;;6.13;3.42;;;13.10;99.90;;;;;;5052958;28;20052;-70
2022/07/17 01:35:22;;;;;;;6.72;3.70;;;12.80;99.90;;;;;;5052343;28;20033;-70
2022/07/17 01:37:48;;;;;;;7.25;4.93;;;12.90;99.90;;;;;;5052616;28;20122;-70
2022/07/17 01:40:15;;;;;;;9.95;4.68;;;13.00;99.90;;;;;;5053526;28;20502;-70
2022/07/17 01:42:49;;;;;;;8.40;4.22;;;13.00;99.90;;;;;;5035675;28;20048;-70
2022/07/17 01:45:16;;;;;;;8.38;3.35;;;12.90;99.90;;;;;;5051814;28;20048;-70
2022/07/17 01:47:43;;;;;;;6.07;3.22;;;12.90;99.90;;;;;;5052403;28;20040;-70
2022/07/17 01:50:09;;;;;;;5.93;3.10;;;12.90;99.90;;;;;;5053472;28;20040;-70
2022/07/17 01:52:37;;;;;;;5.25;2.72;;;12.80;99.90;;;;;;5052243;28;20090;-70
2022/07/17 01:55:06;;;;;;;5.80;2.75;;;12.70;99.90;;;;;;5051993;28;20041;-70
2022/07/17 01:57:32;;;;;;;3.60;2.58;;;12.80;99.90;;;;;;5053578;28;20036;-70
2022/07/17 01:59:58;;;;;;;5.70;2.58;;;12.70;99.90;;;;;;5052293;28;20395;-70
2022/07/17 02:02:24;;;;;;;4.15;2.50;;;12.60;99.90;;;;;;5053202;28;20040;-70
2022/07/17 02:04:49;;;;;;;3.33;2.28;;;12.50;99.90;;;;;;5051893;28;20055;-70
2022/07/17 02:07:15;;;;;;;4.68;2.40;;;;;;;;;;5051924;28;20037;-70
2022/07/17 02:09:41;;;;;;;4.47;2.28;;;12.80;99.90;;;;;;5052152;28;20045;-70
2022/07/17 02:12:09;;;;;;;8.63;2.65;;;12.60;99.90;;;;;;5052108;28;20029;-70
2022/07/17 02:14:35;;;;;;;4.63;2.65;;;12.70;99.90;;;;;;5052796;28;20061;-68
2022/07/17 02:17:01;;;;;;;4.57;2.30;;;;;;;;;;5051298;28;20076;-68
2022/07/17 02:19:27;;;;;;;5.72;2.53;;;12.50;99.90;;;;;;5052835;28;20541;-70
2022/07/17 02:21:52;;;;;;;4.68;2.88;;;12.60;99.90;;;;;;5051516;28;20081;-70
2022/07/17 02:24:19;;;;;;;3.38;2.63;;;12.60;99.90;;;;;;5051510;28;20083;-69
2022/07/17 02:26:45;;;;;;;6.05;3.10;;;12.50;99.90;;;;;;5051564;28;20041;-70
2022/07/17 02:29:10;;;;;;;3.80;2.88;;;12.40;99.90;;;;;;5052777;28;20060;-70
2022/07/17 02:31:36;;;;;;;3.10;2.53;;;12.60;99.90;;;;;;5051569;28;20116;-70
2022/07/17 02:34:01;;;;;;;5.75;3.38;;;12.30;99.90;;;;;;5052309;28;20122;-69
2022/07/17 02:36:27;;;;;;;7.97;3.78;;;12.40;99.90;;;;;;5051257;28;20098;-70
2022/07/17 02:38:53;;;;;;;7.13;4.15;;;;;;;;;;5051263;28;20124;-70
2022/07/17 02:41:19;;;;;;;11.40;5.05;;;12.40;99.90;;;;;;5034551;28;20127;-70
2022/07/17 02:43:45;;;;;;;7.32;4.13;;;12.40;99.90;;;;;;5050981;28;20099;-70
2022/07/17 02:46:13;;;;;;;9.30;4.22;;;12.40;99.90;;;;;;5104418;22;20044;-70
2022/07/17 02:48:39;;;;;;;7.82;4.63;;;;;;;;;;5073975;28;20570;-70
2022/07/17 02:51:06;;;;;;;8.30;3.97;;;12.20;99.90;;;;;;5073498;28;20044;-69
2022/07/17 02:53:31;;;;;;;8.93;3.65;;;12.40;99.90;;;;;;5091631;28;20104;-71
2022/07/17 02:55:57;;;;;;;5.55;3.40;;;12.20;99.90;;;;;;5073480;28;20497;-69
2022/07/17 02:58:23;;;;;;;4.65;3.88;;;12.40;99.90;;;;;;5073924;28;20044;-69
2022/07/17 03:00:48;;;;;;;6.50;3.75;;;12.20;99.90;;;;;;5092100;28;20051;-69
2022/07/17 03:03:14;;;;;;;6.65;4.28;;;12.30;99.90;;;;;;5092061;28;20485;-70
2022/07/17 03:05:39;;;;;;;8.05;4.25;;;12.30;99.90;;;;;;5091614;28;20051;-69
2022/07/17 03:08:05;;;;;;;5.32;3.65;;;12.30;99.90;;;;;;5057087;28;20468;-69
2022/07/17 03:10:31;;;;;;;6.07;4.18;;;12.30;99.90;;;;;;5073622;28;20032;-69
2022/07/17 03:12:56;;;;;;;7.20;3.45;;;12.30;99.90;;;;;;5073821;28;20058;-69
2022/07/17 03:15:22;;;;;;;5.25;3.65;;;12.20;99.90;;;;;;5091611;28;20082;-69
2022/07/17 03:17:48;;;;;;;6.13;3.83;;;12.20;99.90;;;;;;5073955;28;20032;-69
2022/07/17 03:20:14;;;;;;;6.32;3.78;;;12.20;99.90;;;;;;5057823;28;20101;-69
2022/07/17 03:22:39;;;;;;;8.23;4.22;;;12.20;99.90;;;;;;5057404;28;20458;-69
2022/07/17 03:25:06;;;;;;;6.88;3.78;;;12.30;99.90;;;;;;5091773;28;20040;-71
2022/07/17 03:27:31;;;;;;;6.20;3.38;;;12.30;99.90;;;;;;5073120;28;20071;-69
2022/07/17 03:29:57;;;;;;;5.70;3.97;;;;;;;;;;5056909;28;20076;-69
2022/07/17 03:32:23;;;;;;;7.22;3.83;;;12.20;99.90;;;;;;5073548;28;20058;-69
2022/07/17 03:34:49;;;;;;;5.70;4.15;;;12.20;99.90;;;;;;5091232;28;20050;-69
2022/07/17 03:37:15;;;;;;;8.73;3.88;;;12.20;99.90;;;;;;5073245;28;20067;-69
2022/07/17 03:39:41;;;;;;;9.90;5.32;;;12.40;99.90;;;;;;5091406;28;20544;-69
2022/07/17 03:42:07;;;;;;;6.70;4.55;;;12.60;99.90;;;;;;5091657;28;20083;-69
2022/07/17 03:44:33;;;;;;;8.35;5.07;;;12.50;99.90;;;;;;5056083;28;20074;-69
2022/07/17 03:46:58;;;;;;;6.20;4.93;;;12.50;99.90;;;;;;5073435;28;20147;-70
2022/07/17 03:49:24;;;;;;;8.13;4.80;;;12.70;99.90;;;;;;5091452;28;20059;-69
2022/07/17 03:51:50;;;;;;;8.30;5.07;;;12.60;99.90;;;;;;5056517;28;20040;-69
2022/07/17 03:54:16;;;;;;;9.85;5.28;;;12.60;99.90;;;;;;5056423;28;20043;-70
2022/07/17 03:56:42;;;;;;;9.23;4.97;;;;;;;;;;5056541;28;20032;-69
2022/07/17 03:59:07;;;;;;;7.40;4.28;;;12.70;99.90;;;;;;5091488;28;20078;-69
2022/07/17 04:01:33;;;;;;;7.03;4.30;;;12.50;99.90;;;;;;5073107;28;20062;-70
2022/07/17 04:03:59;;;;;;;7.72;3.85;;;12.70;99.90;;;;;;5072981;28;20441;-67
2022/07/17 04:06:24;;;;;;;4.47;4.05;;;12.60;99.90;;;;;;5073279;28;20044;-70
2022/07/17 04:08:50;;;;;;;4.95;3.97;;;13.70;99.90;;;;;;5073135;28;20035;-69
2022/07/17 04:11:15;;;;;;;5.95;4.10;;;12.80;99.90;;;;;;5091401;28;20044;-69
2022/07/17 04:13:41;;;;;;;10.45;3.97;;;12.70;99.90;;;;;;5091404;28;20097;-69
2022/07/17 04:16:06;;;;;;;5.15;3.38;;;13.00;99.90;;;;;;5072717;28;20032;-70
2022/07/17 04:18:35;;;;;;;5.00;3.13;;;12.90;99.90;;;;;;5073072;28;20032;-69
2022/07/17 04:21:05;;;;;;;7.18;3.90;;;13.00;99.90;;;;;;5091058;28;20083;-69
2022/07/17 04:23:32;;;;;;;5.40;3.45;;;12.80;99.90;;;;;;5073198;28;20556;-69
2022/07/17 04:25:57;;;;;;;6.30;3.45;;;12.90;99.90;;;;;;5056068;28;20038;-68
2022/07/17 04:28:23;;;;;;;6.25;3.50;;;13.00;99.90;;;;;;5073152;28;20130;-69
2022/07/17 04:30:49;;;;;;;6.90;3.65;;;13.00;99.90;;;;;;5056214;28;20051;-70
2022/07/17 04:33:15;;;;;;;4.35;3.00;;;;;;;;;;5090911;28;20039;-69
2022/07/17 04:35:41;;;;;;;7.32;3.15;;;12.80;99.90;;;;;;5090665;28;20044;-69
2022/07/17 04:38:08;;;;;;;9.13;2.92;;;13.50;99.90;;;;;;5073228;28;20389;-69
2022/07/17 04:40:34;;;;;;;4.53;2.45;;;14.30;99.90;;;;;;5076209;28;20496;-70
2022/07/17 04:43:00;;;;;;;4.65;2.50;;;13.10;99.90;;;;;;5094810;28;20040;-69
2022/07/17 04:45:26;;;;;;;5.82;2.75;;;13.20;99.90;;;;;;5076119;28;20386;-70
2022/07/17 04:47:51;;;;;;;4.65;2.78;;;14.30;99.90;;;;;;5076455;28;20032;-71
2022/07/17 04:50:17;;;;;;;5.93;2.20;;;13.20;99.90;;;;;;5076278;28;20063;-69
2022/07/17 04:52:43;;;;;;;3.95;2.10;;;13.20;99.90;;;;;;5094739;28;20040;-69
2022/07/17 04:55:09;;;;;;;5.35;2.08;;;13.00;99.90;;;;;;5075930;28;20076;-69
2022/07/17 04:57:35;;;;;;;2.97;2.10;;;13.70;99.90;;;;;;5076424;28;20044;-70
2022/07/17 05:00:02;;;;;;;3.17;1.90;;;13.20;99.90;;;;;;5076039;28;20122;-69
2022/07/17 05:02:27;;;;;;;4.93;2.60;;;14.10;99.90;;;;;;5076373;28;20355;-69
2022/07/17 05:04:53;;;;;;;8.75;2.60;;;13.20;99.90;;;;;;5093862;28;20043;-69
2022/07/17 05:07:19;;;;;;;8.70;2.22;;;13.00;99.90;;;;;;5059313;28;20036;-70
2022/07/17 05:09:44;;;;;;;7.40;2.55;;;13.00;99.90;;;;;;5059551;28;20067;-69
2022/07/17 05:12:10;;;;;;;3.25;1.90;;;13.20;99.90;;;;;;5094272;28;20092;-70
2022/07/17 05:14:35;;;;;;;4.97;1.70;;;13.20;99.90;;;;;;5075849;28;20063;-69
2022/07/17 05:17:02;;;;;;;6.03;1.98;;;13.30;99.90;;;;;;5075833;28;20032;-71
2022/07/17 05:19:27;;;;;;;5.40;1.90;;;14.00;99.90;;;;;;5075845;28;20040;-70
2022/07/17 05:21:53;;;;;;;2.83;1.50;;;13.50;99.90;;;;;;5094220;28;20038;-69
2022/07/17 05:24:19;;;;;;;5.00;1.58;;;13.60;99.90;;;;;;5075673;28;20040;-69
2022/07/17 05:26:44;;;;;;;6.45;1.63;;;13.80;99.90;;;;;;5075768;28;20058;-69
2022/07/17 05:29:10;;;;;;;7.25;1.95;;;14.30;99.90;;;;;;5075436;28;20064;-69
2022/07/17 05:31:35;;;;;;;2.85;1.38;;;13.70;99.90;;;;;;5093768;28;20071;-69
2022/07/17 05:34:01;;;;;;;3.90;1.83;;;13.90;99.90;;;;;;5075155;28;20398;-69
2022/07/17 05:36:26;;;;;;;3.70;1.40;;;13.90;99.90;;;;;;5075742;28;20039;-71
2022/07/17 05:38:52;;;;;;;3.50;1.55;;;13.90;99.90;;;;;;5075428;28;20032;-71
2022/07/17 05:41:18;;;;;;;4.75;1.60;;;13.90;99.90;;;;;;5075462;28;20050;-69
2022/07/17 05:43:43;;;;;;;5.47;2.05;;;14.20;99.90;;;;;;5093346;28;20032;-71
2022/07/17 05:46:09;;;;;;;4.82;1.50;;;14.20;99.90;;;;;;5093178;28;20044;-69
2022/07/17 05:48:35;;;;;;;2.72;1.58;;;14.30;99.90;;;;;;5075405;28;20066;-70
2022/07/17 05:51:00;;;;;;;8.25;1.45;;;15.30;99.90;;;;;;5092859;28;20489;-69
2022/07/17 05:53:26;;;;;;;4.55;1.60;;;14.50;99.90;;;;;;5058761;28;20089;-70
2022/07/17 05:55:52;;;;;;;5.95;1.50;;;14.70;99.90;;;;;;5081395;28;20140;-69
2022/07/17 05:58:18;;;;;;;3.20;1.13;;;15.10;99.90;;;;;;5055174;28;20047;-70
2022/07/17 06:00:44;;;;;;;3.88;1.30;;;14.90;99.90;;;;;;5055084;28;20048;-71
2022/07/17 06:03:10;;;;;;;5.47;1.77;;;15.30;99.90;;;;;;5055218;28;20131;-70
2022/07/17 06:05:36;;;;;;;3.15;1.30;;;16.20;99.90;;;;;;5054422;28;20174;-71
2022/07/17 06:08:01;;;;;;;5.50;1.30;;;15.40;99.90;;;;;;5055164;28;20397;-69
2022/07/17 06:10:28;;;;;;;4.30;1.20;;;15.60;99.90;;;;;;5054627;28;20040;-69
2022/07/17 06:12:54;;;;;;;3.30;1.27;;;15.70;99.90;;;;;;5082280;28;20040;-69
2022/07/17 06:15:20;;;;;;;6.80;1.50;;;15.90;99.90;;;;;;5074167;28;20036;-69
2022/07/17 06:17:46;;;;;;;2.45;1.17;;;16.20;99.90;;;;;;5074535;28;20221;-72
2022/07/17 06:20:13;;;;;;;3.97;1.30;;;16.20;99.90;;;;;;5074566;28;20556;-70
2022/07/17 06:22:40;;;;;;;3.10;1.00;;;16.30;99.90;;;;;;5074457;28;20089;-69
2022/07/17 06:25:06;;;;;;;3.88;1.00;;;17.00;99.90;;;;;;5092483;28;20043;-71
2022/07/17 06:27:32;;;;;;;3.53;0.85;;;16.20;99.90;;;;;;5092828;28;20044;-71
2022/07/17 06:29:58;;;;;;;4.95;1.33;;;16.20;99.90;;;;;;5074568;28;20048;-71
2022/07/17 06:32:24;;;;;;;7.28;1.38;;;16.60;99.90;;;;;;5074276;28;20054;-71
2022/07/17 06:34:49;;;;;;;5.32;0.70;;;16.70;99.90;;;;;;5092328;28;20040;-71
2022/07/17 06:37:15;;;;;;;4.78;0.90;;;16.80;99.90;;;;;;5074269;28;20035;-69
2022/07/17 06:39:41;;;;;;;4.38;1.15;;;17.20;99.90;;;;;;5069591;28;20429;-69
2022/07/17 06:42:06;;;;;;;3.95;0.95;;;17.10;99.90;;;;;;5054100;28;20123;-69
2022/07/17 06:44:33;;;;;;;5.30;1.20;;;18.00;99.90;;;;;;5071720;28;20140;-69
2022/07/17 06:46:58;;;;;;;7.38;1.40;;;17.10;99.90;;;;;;5053070;28;20045;-69
2022/07/17 06:49:24;;;;;;;6.18;1.23;;;16.80;99.90;;;;;;5073125;28;20036;-70
2022/07/17 06:51:50;;;;;;;4.30;1.08;;;16.80;99.90;;;;;;5092317;28;20118;-69
2022/07/17 06:54:15;;;;;;;5.25;1.10;;;16.90;99.90;;;;;;5060730;28;20044;-70
2022/07/17 06:56:41;;;;;;;4.28;1.08;;;16.80;99.90;;;;;;5053975;28;20524;-70
2022/07/17 06:59:07;;;;;;;1.85;0.80;;;17.00;99.90;;;;;;5071189;28;20502;-70
2022/07/17 07:01:36;;;;;;;5.72;1.10;;;17.00;99.90;;;;;;5037407;28;20117;-72
2022/07/17 07:04:03;;;;;;;2.75;0.85;;;16.90;99.90;;;;;;5071003;28;20037;-70
2022/07/17 07:06:29;;;;;;;4.85;1.10;;;16.90;99.90;;;;;;5053832;28;20062;-70
2022/07/17 07:08:55;;;;;;;5.25;0.98;;;16.90;99.90;;;;;;5072295;28;20048;-69
2022/07/17 07:11:20;;;;;;;4.97;1.30;;;17.60;99.90;;;;;;5071855;28;20044;-70
2022/07/17 07:13:46;;;;;;;6.47;1.30;;;17.30;99.90;;;;;;5071417;28;20033;-70
2022/07/17 07:16:12;;;;;;;3.63;1.15;;;17.10;99.90;;;;;;5053555;28;20501;-70
2022/07/17 07:18:37;;;;;;;4.38;1.00;;;18.70;99.90;;;;;;5041588;28;20232;-70
2022/07/17 07:21:03;;;;;;;3.65;1.00;;;17.10;99.90;;;;;;5080475;28;20366;-71
2022/07/17 07:23:29;;;;;;;4.85;1.40;;;17.60;99.90;;;;;;5085628;28;20432;-70
2022/07/17 07:25:54;;;;;;;6.40;1.27;;;17.50;99.90;;;;;;5067456;28;20097;-70
2022/07/17 07:28:20;;;;;;;5.80;1.23;;;17.10;99.90;;;;;;5088353;28;20028;-70
2022/07/17 07:30:45;;;;;;;2.83;1.10;;;17.00;99.90;;;;;;5068643;28;20484;-70
2022/07/17 07:33:11;;;;;;;6.20;1.73;;;17.10;99.90;;;;;;5065583;28;20036;-70
2022/07/17 07:35:37;;;;;;;7.82;1.42;;;18.30;99.90;;;;;;5079522;28;20040;-72
2022/07/17 07:38:03;;;;;;;5.63;1.35;;;17.20;99.90;;;;;;5064798;28;20039;-71
2022/07/17 07:40:28;;;;;;;3.90;1.13;;;17.60;99.90;;;;;;5066371;28;20032;-70
2022/07/17 07:42:54;;;;;;;3.85;1.20;;;18.60;99.90;;;;;;5062813;28;20035;-70
2022/07/17 07:45:20;;;;;;;7.07;1.60;;;17.90;99.90;;;;;;5083932;28;20047;-70
2022/07/17 07:47:47;;;;;;;5.30;1.77;;;18.30;99.90;;;;;;5068116;28;20048;-71
2022/07/17 07:50:14;;;;;;;4.78;1.10;;;18.90;99.90;;;;;;5064912;28;20036;-69
2022/07/17 07:52:40;;;;;;;4.80;1.20;;;18.70;99.90;;;;;;5061758;28;20451;-71
2022/07/17 07:55:07;;;;;;;3.45;1.20;;;19.30;99.90;;;;;;5069106;28;20036;-70
2022/07/17 07:57:33;;;;;;;2.88;1.10;;;18.40;99.90;;;;;;5083482;28;20043;-71
2022/07/17 07:59:59;;;;;;;5.95;1.15;;;18.40;99.90;;;;;;5071411;28;20101;-71
2022/07/17 08:02:25;;;;;;;4.32;1.05;;;18.80;99.90;;;;;;5065090;28;20048;-71
2022/07/17 08:04:51;;;;;;;1.73;1.00;;;18.40;99.90;;;;;;5067241;28;20035;-70
2022/07/17 08:07:16;;;;;;;7.13;1.13;;;19.10;99.90;;;;;;5047653;28;20036;-71
2022/07/17 08:09:42;;;;;;;2.65;0.90;;;18.60;99.90;;;;;;5051091;28;20043;-70
2022/07/17 08:12:07;;;;;;;4.68;0.90;;;19.10;99.90;;;;;;5053214;28;20062;-70
2022/07/17 08:14:33;;;;;;;4.43;1.02;;;18.80;99.90;;;;;;5066073;28;20036;-71
2022/07/17 08:16:59;;;;;;;3.72;1.00;;;17.80;99.90;;;;;;5058259;28;20469;-70
2022/07/17 08:19:24;;;;;;;4.03;0.93;;;19.00;99.90;;;;;;5091524;28;20032;-71
2022/07/17 08:21:50;;;;;;;4.60;1.10;;;18.80;99.90;;;;;;5064966;28;20032;-71
2022/07/17 08:24:16;;;;;;;5.97;1.05;;;19.00;99.90;;;;;;5067619;28;20063;-70
2022/07/17 08:26:42;;;;;;;4.55;1.30;;;19.10;99.90;;;;;;5065545;28;20040;-69
2022/07/17 08:29:07;;;;;;;3.65;1.20;;;20.20;99.90;;;;;;5091253;28;20613;-70
2022/07/17 08:31:33;;;;;;;3.25;1.10;;;18.90;99.90;;;;;;5085477;28;20144;-70
2022/07/17 08:33:58;;;;;;;7.38;1.45;;;19.40;99.90;;;;;;5055103;28;20598;-72
2022/07/17 08:36:24;;;;;;;4.88;0.90;;;19.50;99.90;;;;;;5050936;28;20047;-70
2022/07/17 08:38:50;;;;;;;3.55;0.98;;;19.70;99.90;;;;;;5052488;28;20409;-70
2022/07/17 08:41:16;;;;;;;3.38;0.95;;;19.80;99.90;;;;;;5090316;28;20076;-70
2022/07/17 08:43:42;;;;;;;3.13;1.13;;;19.60;99.90;;;;;;5067741;28;20032;-73
2022/07/17 08:46:11;;;;;;;6.20;1.38;;;20.20;99.90;;;;;;5067536;22;20041;-69
2022/07/17 08:48:41;;;;;;;7.07;0.95;;;19.80;99.90;;;;;;5032934;28;20037;-70
2022/07/17 08:51:08;;;;;;;4.55;0.98;;;19.80;99.90;;;;;;5016026;28;20080;-70
2022/07/17 08:53:33;;;;;;;3.83;1.10;;;20.70;99.90;;;;;;5028227;28;20105;-69
2022/07/17 08:55:59;;;;;;;5.28;1.25;;;19.90;99.90;;;;;;5015680;28;20531;-69
2022/07/17 08:58:24;;;;;;;4.43;1.20;;;19.70;99.90;;;;;;5016816;28;20036;-69
2022/07/17 09:00:50;;;;;;;4.82;1.25;;;19.60;99.90;;;;;;5034478;28;20132;-69
2022/07/17 09:03:17;;;;;;;5.45;1.23;;;19.40;99.90;;;;;;5016003;28;20041;-69
2022/07/17 09:05:44;;;;;;;2.72;1.20;;;19.90;99.90;;;;;;5019947;28;20049;-69
2022/07/17 09:08:16;;;;;;;4.50;1.15;;;19.80;99.90;;;;;;5027679;28;20093;-69
2022/07/17 09:10:44;;;;;;;7.53;1.38;;;20.00;99.90;;;;;;5007370;28;20041;-68
2022/07/17 09:13:27;;;;;;;3.72;1.17;;;20.40;99.90;;;;;;5007600;28;20492;-68
2022/07/17 09:16:10;;;;;;;3.65;1.40;;;20.10;99.90;;;;;;4998539;28;20038;-70
2022/07/17 09:18:57;;;;;;;3.88;1.20;;;20.20;99.90;;;;;;5030052;28;20120;-70
2022/07/17 09:21:27;;;;;;;4.72;1.40;;;20.70;99.90;;;;;;5013068;28;20049;-70
2022/07/17 09:24:02;;;;;;;2.35;1.00;;;20.30;99.90;;;;;;5013451;28;20124;-68
2022/07/17 09:26:28;;;;;;;4.78;1.27;;;20.50;99.90;;;;;;4976093;28;20053;-70
2022/07/17 09:28:54;;;;;;;2.75;1.08;;;20.70;99.90;;;;;;4982223;28;20042;-70
2022/07/17 09:31:28;;;;;;;3.55;1.10;;;20.40;99.90;;;;;;5016809;28;20041;-71
2022/07/17 09:33:55;;;;;;;2.33;1.10;;;20.80;99.90;;;;;;5006232;28;20038;-69
2022/07/17 09:36:21;;;;;;;3.58;1.27;;;21.00;99.90;;;;;;4995179;28;20029;-70
2022/07/17 09:38:51;;;;;;;3.72;1.42;;;21.00;99.90;;;;;;5010565;28;20047;-70
2022/07/17 09:41:20;;;;;;;4.20;1.30;;;21.10;99.90;;;;;;5022972;28;20034;-70
2022/07/17 09:43:58;;;;;;;8.07;1.23;;;21.50;99.90;;;;;;4996824;28;20048;-70
2022/07/17 09:46:28;;;;;;;3.45;1.30;;;21.10;99.90;;;;;;5015007;28;20088;-70
2022/07/17 09:48:56;;;;;;;6.20;1.67;;;21.30;99.90;;;;;;5032786;28;20565;-70
2022/07/17 09:51:37;;;;;;;4.07;1.45;;;21.50;99.90;;;;;;5014904;28;20056;-70
2022/07/17 09:54:05;;;;;;;3.30;1.20;;;20.70;99.90;;;;;;4998489;28;20040;-70
2022/07/17 09:56:34;;;;;;;5.20;1.15;;;21.00;99.90;;;;;;4995980;28;20454;-70
2022/07/17 09:59:00;;;;;;;4.82;1.45;;;21.40;99.90;;;;;;5027428;28;20038;-68
2022/07/17 10:01:26;;;;;;;2.38;1.17;;;21.50;99.90;;;;;;5032670;28;20140;-71
2022/07/17 10:03:53;;;;;;;5.50;1.50;;;21.60;99.90;;;;;;5014217;28;20116;-71
2022/07/17 10:06:20;;;;;;;6.32;1.45;;;21.60;99.90;;;;;;5003133;28;20132;-71
2022/07/17 10:08:46;;;;;;;3.40;1.10;;;21.60;99.90;;;;;;4994644;28;20053;-70
2022/07/17 10:11:15;;;;;;;2.58;1.63;;;21.60;99.90;;;;;;5012999;28;20088;-69
2022/07/17 10:13:44;;;;;;;2.47;1.15;;;21.90;99.90;;;;;;5004020;28;20092;-71
2022/07/17 10:16:10;;;;;;;3.60;1.10;;;22.30;99.90;;;;;;4999600;28;20034;-71
2022/07/17 10:18:41;;;;;;;3.95;1.33;;;21.80;99.90;;;;;;5030027;28;20503;-69
2022/07/17 10:21:16;;;;;;;1.70;1.00;;;21.70;99.90;;;;;;5014588;28;20421;-70
2022/07/17 10:23:43;;;;;;;3.30;1.23;;;21.60;99.90;;;;;;5014538;28;20572;-71
2022/07/17 10:26:10;;;;;;;3.90;1.80;;;21.70;99.90;;;;;;5013554;28;20038;-70
2022/07/17 10:28:40;;;;;;;4.70;1.33;;;22.10;99.90;;;;;;5009745;28;20447;-70
2022/07/17 10:31:06;;;;;;;5.53;2.10;;;22.60;99.90;;;;;;5032280;28;20054;-71
2022/07/17 10:33:32;;;;;;;2.35;0.88;;;22.10;99.90;;;;;;5023307;28;20411;-70
2022/07/17 10:35:59;;;;;;;3.42;1.30;;;21.70;99.90;;;;;;4994666;28;20034;-70
2022/07/17 10:38:27;;;;;;;5.35;1.20;;;21.60;99.90;;;;;;5024092;28;20038;-71
2022/07/17 10:41:02;;;;;;;4.45;1.42;;;21.70;99.90;;;;;;5016989;28;20116;-71
2022/07/17 10:43:39;;;;;;;3.00;1.23;;;22.10;99.90;;;;;;5007535;28;20037;-71
2022/07/17 10:46:04;;;;;;;3.20;1.20;;;22.30;99.90;;;;;;4990214;28;20041;-71
2022/07/17 10:48:30;;;;;;;4.25;1.60;;;22.70;99.70;;;;;;4994550;28;20049;-71
2022/07/17 10:50:56;;;;;;;1.92;0.88;;;22.40;99.80;;;;;;4994680;28;20038;-70
2022/07/17 10:53:33;;;;;;;2.78;1.02;;;22.40;99.90;;;;;;4994859;28;20447;-70
2022/07/17 10:56:05;;;;;;;4.68;1.60;;;22.30;99.90;;;;;;4994434;28;20121;-70
2022/07/17 10:58:32;;;;;;;5.53;1.55;;;22.80;99.90;;;;;;4978851;28;20048;-71
2022/07/17 11:01:03;;;;;;;3.28;1.17;;;22.50;99.80;;;;;;4995035;28;20519;-71
2022/07/17 11:03:30;;;;;;;4.80;1.42;;;22.90;99.90;;;;;;4994982;28;20115;-70
2022/07/17 11:06:26;;;;;;;2.60;1.25;;;22.80;99.90;;;;;;4994688;28;20184;-70
2022/07/17 11:08:53;;;;;;;3.80;1.13;;;22.50;99.30;;;;;;5002044;28;20072;-70
2022/07/17 11:11:43;;;;;;;3.17;0.80;;;23.40;99.90;;;;;;5011834;28;20140;-71
2022/07/17 11:14:11;;;;;;;3.53;1.05;;;23.20;99.80;;;;;;5013111;28;20045;-70
2022/07/17 11:16:37;;;;;;;2.53;1.20;;;23.00;99.90;;;;;;5031707;28;20495;-72
2022/07/17 11:19:03;;;;;;;2.95;1.40;;;23.80;99.90;;;;;;5024865;28;20045;-71
2022/07/17 11:21:29;;;;;;;5.60;1.88;;;23.10;99.90;;;;;;4978306;28;20121;-71
2022/07/17 11:23:56;;;;;;;2.83;1.17;;;23.40;99.90;;;;;;5011846;28;20041;-70
2022/07/17 11:26:23;;;;;;;2.85;1.35;;;23.20;99.90;;;;;;4998609;28;20045;-70
2022/07/17 11:28:50;;;;;;;4.03;1.48;;;23.20;99.60;;;;;;5020415;28;20041;-70
2022/07/17 11:31:24;;;;;;;5.00;1.23;;;23.40;99.90;;;;;;5021002;28;20033;-71
2022/07/17 11:33:50;;;;;;;3.53;1.60;;;23.00;99.50;;;;;;5013239;28;20033;-71
2022/07/17 11:36:25;;;;;;;1.85;1.15;;;24.00;99.90;;;;;;5013243;28;20030;-71
2022/07/17 11:38:52;;;;;;;3.40;1.30;;;22.70;99.90;;;;;;5006117;28;20041;-72
2022/07/17 11:41:19;;;;;;;6.07;1.20;;;23.60;99.90;;;;;;5013271;28;20128;-71
2022/07/17 11:43:46;;;;;;;3.45;1.20;;;23.60;99.90;;;;;;4996037;28;20499;-72
2022/07/17 11:46:12;;;;;;;2.60;1.30;;;23.70;99.90;;;;;;4999219;28;20037;-71
2022/07/17 11:48:41;;;;;;;3.17;1.27;;;23.70;99.90;;;;;;5003533;28;20406;-71
2022/07/17 11:51:07;;;;;;;2.08;1.35;;;23.10;99.30;;;;;;4999559;28;20049;-71
2022/07/17 11:53:35;;;;;;;5.32;1.92;;;23.10;99.50;;;;;;5029684;28;20041;-71
2022/07/17 11:56:01;;;;;;;2.97;1.70;;;23.50;99.50;;;;;;5010679;28;20038;-71
2022/07/17 11:58:27;;;;;;;3.30;1.67;;;23.40;99.50;;;;;;5031453;28;20037;-69
2022/07/17 12:01:03;;;;;;;5.25;1.88;;;23.30;99.10;;;;;;5008744;28;20046;-72
2022/07/17 12:03:29;;;;;;;4.40;2.03;;;23.40;99.50;;;;;;5005255;28;20038;-71
2022/07/17 12:05:55;;;;;;;4.45;1.48;;;23.90;99.90;;;;;;5018387;28;20072;-71
2022/07/17 12:08:21;;;;;;;3.78;1.63;;;24.80;99.90;;;;;;5027368;28;20410;-72
2022/07/17 12:10:49;;;;;;;5.05;1.65;;;24.10;98.60;;;;;;5029476;28;20052;-70
2022/07/17 12:13:15;;;;;;;4.63;1.65;;;24.60;99.00;;;;;;5025648;28;20399;-71
2022/07/17 12:15:50;;;;;;;6.38;1.95;;;24.60;97.70;;;;;;5029306;28;20046;-72
2022/07/17 12:18:25;;;;;;;2.83;1.65;;;24.30;96.80;;;;;;5009360;28;20088;-72
2022/07/17 12:20:53;;;;;;;3.55;1.95;;;26.00;97.10;;;;;;5028403;28;20051;-70
2022/07/17 12:23:39;;;;;;;6.07;2.30;;;23.90;96.80;;;;;;5029805;28;20044;-70
2022/07/17 12:26:16;;;;;;;4.85;2.25;;;24.10;96.50;;;;;;5031383;28;20039;-70
2022/07/17 12:28:43;;;;;;;2.90;2.00;;;24.00;96.70;;;;;;5010494;28;20065;-72
2022/07/17 12:31:09;;;;;;;3.08;1.80;;;24.30;97.10;;;;;;5030569;28;20044;-71
2022/07/17 12:33:35;;;;;;;6.57;2.58;;;24.10;96.10;;;;;;5029596;28;20037;-69
2022/07/17 12:36:00;;;;;;;3.20;1.83;;;24.80;97.10;;;;;;5030931;28;20044;-71
2022/07/17 12:38:26;;;;;;;5.22;1.80;;;24.80;97.40;;;;;;5008387;28;20036;-72
2022/07/17 12:40:52;;;;;;;3.65;1.90;;;25.20;97.10;;;;;;5012256;28;20678;-71
2022/07/17 12:43:17;;;;;;;3.03;1.50;;;24.50;97.40;;;;;;5002678;28;20029;-71
2022/07/17 12:45:43;;;;;;;3.92;1.90;;;25.00;97.40;;;;;;5026070;28;20041;-72
2022/07/17 12:48:09;;;;;;;7.53;2.35;;;24.60;97.40;;;;;;5031639;28;20036;-72